sensor_id;sensor_type;location;lat;lon;timestamp;P1;durP1;ratioP1;P2;durP2;ratioP2
15110;SDS011;7656;51.954;7.998;2023-09-19T00:00:50;2.23;;;1.93;;
15110;SDS011;7656;51.954;7.998;2023-09-19T00:05:17;5.57;;;2.47;;
15110;SDS011;7656;51.954;7.998;2023-09-19T00:09:39;2.60;;;2.07;;
15110;SDS011;7656;51.954;7.998;2023-09-19T00:14:01;3.47;;;2.17;;
15110;SDS011;7656;51.954;7.998;2023-09-19T00:18:22;4.20;;;2.53;;
15110;SDS011;7656;51.954;7.998;2023-09-19T00:22:44;5.27;;;2.37;;
15110;SDS011;7656;51.954;7.998;2023-09-19T00:27:05;4.40;;;2.60;;
15110;SDS011;7656;51.954;7.998;2023-09-19T00:31:28;3.47;;;1.70;;
15110;SDS011;7656;51.954;7.998;2023-09-19T00:35:51;3.07;;;1.87;;
15110;SDS011;7656;51.954;7.998;2023-09-19T00:40:13;3.77;;;2.33;;
15110;SDS011;7656;51.954;7.998;2023-09-19T00:44:35;3.53;;;2.17;;
15110;SDS011;7656;51.954;7.998;2023-09-19T00:48:57;7.60;;;2.20;;
15110;SDS011;7656;51.954;7.998;2023-09-19T00:53:20;5.73;;;2.77;;
15110;SDS011;7656;51.954;7.998;2023-09-19T00:57:43;2.93;;;1.77;;
15110;SDS011;7656;51.954;7.998;2023-09-19T01:02:04;5.37;;;2.33;;
15110;SDS011;7656;51.954;7.998;2023-09-19T01:06:26;6.37;;;2.40;;
15110;SDS011;7656;51.954;7.998;2023-09-19T01:11:09;3.20;;;1.80;;
15110;SDS011;7656;51.954;7.998;2023-09-19T01:15:51;7.70;;;2.33;;
15110;SDS011;7656;51.954;7.998;2023-09-19T01:20:27;2.70;;;1.93;;
15110;SDS011;7656;51.954;7.998;2023-09-19T01:30:07;7.77;;;2.27;;
15110;SDS011;7656;51.954;7.998;2023-09-19T01:34:48;7.03;;;1.70;;
15110;SDS011;7656;51.954;7.998;2023-09-19T01:39:10;5.70;;;2.30;;
15110;SDS011;7656;51.954;7.998;2023-09-19T01:43:36;4.27;;;2.20;;
15110;SDS011;7656;51.954;7.998;2023-09-19T01:48:49;2.47;;;1.67;;
15110;SDS011;7656;51.954;7.998;2023-09-19T01:52:54;3.67;;;1.83;;
15110;SDS011;7656;51.954;7.998;2023-09-19T01:57:48;5.00;;;2.33;;
15110;SDS011;7656;51.954;7.998;2023-09-19T02:02:46;9.10;;;2.50;;
15110;SDS011;7656;51.954;7.998;2023-09-19T02:07:08;6.20;;;2.20;;
15110;SDS011;7656;51.954;7.998;2023-09-19T02:11:29;10.17;;;2.17;;
15110;SDS011;7656;51.954;7.998;2023-09-19T02:15:50;6.73;;;1.90;;
15110;SDS011;7656;51.954;7.998;2023-09-19T02:20:12;4.30;;;1.80;;
15110;SDS011;7656;51.954;7.998;2023-09-19T02:24:35;7.97;;;2.10;;
15110;SDS011;7656;51.954;7.998;2023-09-19T02:28:58;8.50;;;1.93;;
15110;SDS011;7656;51.954;7.998;2023-09-19T02:33:21;4.97;;;2.73;;
15110;SDS011;7656;51.954;7.998;2023-09-19T02:37:46;6.70;;;2.10;;
15110;SDS011;7656;51.954;7.998;2023-09-19T02:42:07;6.17;;;2.63;;
15110;SDS011;7656;51.954;7.998;2023-09-19T02:46:28;9.43;;;2.27;;
15110;SDS011;7656;51.954;7.998;2023-09-19T02:50:50;8.47;;;3.43;;
15110;SDS011;7656;51.954;7.998;2023-09-19T02:55:12;6.00;;;2.30;;
15110;SDS011;7656;51.954;7.998;2023-09-19T02:59:37;9.10;;;3.33;;
15110;SDS011;7656;51.954;7.998;2023-09-19T03:03:59;6.90;;;2.53;;
15110;SDS011;7656;51.954;7.998;2023-09-19T03:08:20;7.53;;;2.33;;
15110;SDS011;7656;51.954;7.998;2023-09-19T03:12:43;5.23;;;2.07;;
15110;SDS011;7656;51.954;7.998;2023-09-19T03:17:04;8.40;;;2.30;;
15110;SDS011;7656;51.954;7.998;2023-09-19T03:21:25;8.90;;;2.20;;
15110;SDS011;7656;51.954;7.998;2023-09-19T03:25:47;4.07;;;2.10;;
15110;SDS011;7656;51.954;7.998;2023-09-19T03:30:08;6.60;;;1.80;;
15110;SDS011;7656;51.954;7.998;2023-09-19T03:34:34;8.27;;;2.50;;
15110;SDS011;7656;51.954;7.998;2023-09-19T03:39:02;5.10;;;2.00;;
15110;SDS011;7656;51.954;7.998;2023-09-19T03:43:25;5.87;;;1.93;;
15110;SDS011;7656;51.954;7.998;2023-09-19T03:47:47;6.30;;;1.67;;
15110;SDS011;7656;51.954;7.998;2023-09-19T03:52:09;10.73;;;2.77;;
15110;SDS011;7656;51.954;7.998;2023-09-19T03:56:30;7.37;;;2.00;;
15110;SDS011;7656;51.954;7.998;2023-09-19T04:00:54;8.93;;;2.67;;
15110;SDS011;7656;51.954;7.998;2023-09-19T04:05:16;7.43;;;2.00;;
15110;SDS011;7656;51.954;7.998;2023-09-19T04:09:38;6.83;;;2.07;;
15110;SDS011;7656;51.954;7.998;2023-09-19T04:14:02;5.40;;;2.20;;
15110;SDS011;7656;51.954;7.998;2023-09-19T04:18:25;6.37;;;1.87;;
15110;SDS011;7656;51.954;7.998;2023-09-19T04:22:47;5.87;;;2.07;;
15110;SDS011;7656;51.954;7.998;2023-09-19T04:27:08;7.83;;;1.70;;
15110;SDS011;7656;51.954;7.998;2023-09-19T04:31:30;2.37;;;1.70;;
15110;SDS011;7656;51.954;7.998;2023-09-19T04:35:52;4.03;;;2.23;;
15110;SDS011;7656;51.954;7.998;2023-09-19T04:40:13;6.40;;;1.87;;
15110;SDS011;7656;51.954;7.998;2023-09-19T04:44:34;6.40;;;2.50;;
15110;SDS011;7656;51.954;7.998;2023-09-19T04:48:56;2.60;;;1.70;;
15110;SDS011;7656;51.954;7.998;2023-09-19T04:53:18;6.07;;;2.37;;
15110;SDS011;7656;51.954;7.998;2023-09-19T04:57:41;6.60;;;1.97;;
15110;SDS011;7656;51.954;7.998;2023-09-19T05:02:02;7.00;;;2.33;;
15110;SDS011;7656;51.954;7.998;2023-09-19T05:06:23;4.13;;;1.80;;
15110;SDS011;7656;51.954;7.998;2023-09-19T05:10:46;5.57;;;1.73;;
15110;SDS011;7656;51.954;7.998;2023-09-19T05:15:09;7.70;;;2.00;;
15110;SDS011;7656;51.954;7.998;2023-09-19T05:19:30;4.23;;;1.63;;
15110;SDS011;7656;51.954;7.998;2023-09-19T05:23:51;6.83;;;1.87;;
15110;SDS011;7656;51.954;7.998;2023-09-19T05:28:12;5.03;;;1.70;;
15110;SDS011;7656;51.954;7.998;2023-09-19T05:32:35;5.57;;;2.10;;
15110;SDS011;7656;51.954;7.998;2023-09-19T05:36:56;6.83;;;1.67;;
15110;SDS011;7656;51.954;7.998;2023-09-19T05:41:17;7.23;;;1.90;;
15110;SDS011;7656;51.954;7.998;2023-09-19T05:45:38;8.33;;;2.43;;
15110;SDS011;7656;51.954;7.998;2023-09-19T05:50:01;4.93;;;1.80;;
15110;SDS011;7656;51.954;7.998;2023-09-19T05:54:23;5.97;;;2.00;;
15110;SDS011;7656;51.954;7.998;2023-09-19T05:58:44;7.97;;;2.10;;
15110;SDS011;7656;51.954;7.998;2023-09-19T06:03:05;5.50;;;2.07;;
15110;SDS011;7656;51.954;7.998;2023-09-19T06:07:26;5.57;;;2.03;;
15110;SDS011;7656;51.954;7.998;2023-09-19T06:11:56;10.13;;;1.90;;
15110;SDS011;7656;51.954;7.998;2023-09-19T06:16:17;4.37;;;1.93;;
15110;SDS011;7656;51.954;7.998;2023-09-19T06:20:40;4.13;;;1.83;;
15110;SDS011;7656;51.954;7.998;2023-09-19T06:25:04;7.27;;;1.97;;
15110;SDS011;7656;51.954;7.998;2023-09-19T06:29:26;5.70;;;1.63;;
15110;SDS011;7656;51.954;7.998;2023-09-19T06:33:47;4.30;;;2.40;;
15110;SDS011;7656;51.954;7.998;2023-09-19T06:38:08;3.00;;;1.50;;
15110;SDS011;7656;51.954;7.998;2023-09-19T06:42:33;3.03;;;1.57;;
15110;SDS011;7656;51.954;7.998;2023-09-19T06:46:55;5.93;;;1.90;;
15110;SDS011;7656;51.954;7.998;2023-09-19T06:51:16;6.47;;;1.73;;
15110;SDS011;7656;51.954;7.998;2023-09-19T06:55:37;8.93;;;2.03;;
15110;SDS011;7656;51.954;7.998;2023-09-19T06:59:58;6.23;;;2.10;;
15110;SDS011;7656;51.954;7.998;2023-09-19T07:04:21;4.97;;;1.83;;
15110;SDS011;7656;51.954;7.998;2023-09-19T07:08:42;4.63;;;2.23;;
15110;SDS011;7656;51.954;7.998;2023-09-19T07:13:06;7.57;;;2.00;;
15110;SDS011;7656;51.954;7.998;2023-09-19T07:17:31;7.63;;;2.00;;
15110;SDS011;7656;51.954;7.998;2023-09-19T07:21:53;4.83;;;1.70;;
15110;SDS011;7656;51.954;7.998;2023-09-19T07:26:14;3.25;;;1.67;;
15110;SDS011;7656;51.954;7.998;2023-09-19T07:30:36;6.75;;;2.15;;
15110;SDS011;7656;51.954;7.998;2023-09-19T07:34:58;4.60;;;1.98;;
15110;SDS011;7656;51.954;7.998;2023-09-19T07:39:19;6.28;;;1.70;;
15110;SDS011;7656;51.954;7.998;2023-09-19T07:43:40;2.75;;;1.70;;
15110;SDS011;7656;51.954;7.998;2023-09-19T07:48:01;8.32;;;2.00;;
15110;SDS011;7656;51.954;7.998;2023-09-19T07:52:26;5.47;;;1.95;;
15110;SDS011;7656;51.954;7.998;2023-09-19T07:56:48;5.32;;;1.75;;
15110;SDS011;7656;51.954;7.998;2023-09-19T08:01:09;4.55;;;2.13;;
15110;SDS011;7656;51.954;7.998;2023-09-19T08:05:31;5.78;;;1.92;;
15110;SDS011;7656;51.954;7.998;2023-09-19T08:09:53;4.85;;;2.03;;
15110;SDS011;7656;51.954;7.998;2023-09-19T08:14:14;4.57;;;2.65;;
15110;SDS011;7656;51.954;7.998;2023-09-19T08:18:36;6.10;;;2.03;;
15110;SDS011;7656;51.954;7.998;2023-09-19T08:23:00;4.95;;;2.33;;
15110;SDS011;7656;51.954;7.998;2023-09-19T08:27:21;7.15;;;2.72;;
15110;SDS011;7656;51.954;7.998;2023-09-19T08:31:47;7.40;;;1.88;;
15110;SDS011;7656;51.954;7.998;2023-09-19T08:36:09;6.70;;;2.20;;
15110;SDS011;7656;51.954;7.998;2023-09-19T08:40:37;5.53;;;2.15;;
15110;SDS011;7656;51.954;7.998;2023-09-19T08:45:01;5.43;;;1.98;;
15110;SDS011;7656;51.954;7.998;2023-09-19T08:49:45;6.10;;;2.10;;
15110;SDS011;7656;51.954;7.998;2023-09-19T08:54:24;6.15;;;2.22;;
15110;SDS011;7656;51.954;7.998;2023-09-19T08:59:02;8.43;;;2.60;;
15110;SDS011;7656;51.954;7.998;2023-09-19T09:03:32;5.75;;;2.55;;
15110;SDS011;7656;51.954;7.998;2023-09-19T09:07:55;9.02;;;2.70;;
15110;SDS011;7656;51.954;7.998;2023-09-19T09:12:17;3.40;;;2.03;;
15110;SDS011;7656;51.954;7.998;2023-09-19T09:16:38;6.18;;;2.45;;
15110;SDS011;7656;51.954;7.998;2023-09-19T09:21:00;5.25;;;2.30;;
15110;SDS011;7656;51.954;7.998;2023-09-19T09:25:21;4.93;;;2.47;;
15110;SDS011;7656;51.954;7.998;2023-09-19T09:29:46;7.43;;;2.78;;
15110;SDS011;7656;51.954;7.998;2023-09-19T09:34:11;4.05;;;2.50;;
15110;SDS011;7656;51.954;7.998;2023-09-19T09:38:46;6.78;;;2.55;;
15110;SDS011;7656;51.954;7.998;2023-09-19T09:43:25;5.53;;;2.50;;
15110;SDS011;7656;51.954;7.998;2023-09-19T09:47:55;5.47;;;2.78;;
15110;SDS011;7656;51.954;7.998;2023-09-19T09:52:16;9.98;;;2.67;;
15110;SDS011;7656;51.954;7.998;2023-09-19T09:56:58;2.45;;;2.08;;
15110;SDS011;7656;51.954;7.998;2023-09-19T10:01:46;5.93;;;2.03;;
15110;SDS011;7656;51.954;7.998;2023-09-19T10:06:15;6.28;;;2.17;;
15110;SDS011;7656;51.954;7.998;2023-09-19T10:10:47;4.95;;;2.15;;
15110;SDS011;7656;51.954;7.998;2023-09-19T10:15:15;3.25;;;2.67;;
15110;SDS011;7656;51.954;7.998;2023-09-19T10:24:17;3.55;;;1.98;;
15110;SDS011;7656;51.954;7.998;2023-09-19T10:28:40;2.17;;;1.98;;
15110;SDS011;7656;51.954;7.998;2023-09-19T10:33:02;5.00;;;1.92;;
15110;SDS011;7656;51.954;7.998;2023-09-19T10:37:26;6.43;;;2.10;;
15110;SDS011;7656;51.954;7.998;2023-09-19T10:41:50;5.57;;;2.45;;
15110;SDS011;7656;51.954;7.998;2023-09-19T10:46:14;6.85;;;2.20;;
15110;SDS011;7656;51.954;7.998;2023-09-19T10:51:00;4.72;;;1.45;;
15110;SDS011;7656;51.954;7.998;2023-09-19T10:55:25;4.70;;;2.20;;
15110;SDS011;7656;51.954;7.998;2023-09-19T11:04:43;3.55;;;1.88;;
15110;SDS011;7656;51.954;7.998;2023-09-19T11:09:08;2.65;;;1.58;;
15110;SDS011;7656;51.954;7.998;2023-09-19T11:13:35;5.35;;;1.92;;
15110;SDS011;7656;51.954;7.998;2023-09-19T11:17:57;4.03;;;2.30;;
15110;SDS011;7656;51.954;7.998;2023-09-19T11:22:19;4.63;;;1.92;;
15110;SDS011;7656;51.954;7.998;2023-09-19T11:26:43;4.55;;;2.30;;
15110;SDS011;7656;51.954;7.998;2023-09-19T11:40:32;5.40;;;2.03;;
15110;SDS011;7656;51.954;7.998;2023-09-19T11:44:53;3.35;;;1.83;;
15110;SDS011;7656;51.954;7.998;2023-09-19T11:49:16;4.20;;;2.08;;
15110;SDS011;7656;51.954;7.998;2023-09-19T11:53:44;2.33;;;1.88;;
15110;SDS011;7656;51.954;7.998;2023-09-19T11:58:11;5.13;;;1.90;;
15110;SDS011;7656;51.954;7.998;2023-09-19T12:02:40;6.40;;;1.85;;
15110;SDS011;7656;51.954;7.998;2023-09-19T12:07:07;3.17;;;1.65;;
15110;SDS011;7656;51.954;7.998;2023-09-19T12:11:40;6.70;;;1.80;;
15110;SDS011;7656;51.954;7.998;2023-09-19T12:16:11;2.67;;;1.80;;
15110;SDS011;7656;51.954;7.998;2023-09-19T12:20:42;5.07;;;2.33;;
15110;SDS011;7656;51.954;7.998;2023-09-19T12:25:07;4.10;;;1.60;;
15110;SDS011;7656;51.954;7.998;2023-09-19T12:29:31;4.93;;;1.95;;
15110;SDS011;7656;51.954;7.998;2023-09-19T12:34:02;3.45;;;1.40;;
15110;SDS011;7656;51.954;7.998;2023-09-19T12:38:25;3.40;;;1.58;;
15110;SDS011;7656;51.954;7.998;2023-09-19T12:42:54;4.07;;;1.60;;
15110;SDS011;7656;51.954;7.998;2023-09-19T12:47:16;4.43;;;1.77;;
15110;SDS011;7656;51.954;7.998;2023-09-19T12:51:41;7.00;;;2.00;;
15110;SDS011;7656;51.954;7.998;2023-09-19T12:56:02;4.97;;;1.52;;
15110;SDS011;7656;51.954;7.998;2023-09-19T13:00:39;1.95;;;1.20;;
15110;SDS011;7656;51.954;7.998;2023-09-19T13:05:03;4.05;;;1.80;;
15110;SDS011;7656;51.954;7.998;2023-09-19T13:09:27;4.47;;;1.88;;
15110;SDS011;7656;51.954;7.998;2023-09-19T13:14:16;6.32;;;1.92;;
15110;SDS011;7656;51.954;7.998;2023-09-19T13:18:44;3.63;;;1.90;;
15110;SDS011;7656;51.954;7.998;2023-09-19T13:23:07;2.85;;;1.58;;
15110;SDS011;7656;51.954;7.998;2023-09-19T13:27:51;4.50;;;2.10;;
15110;SDS011;7656;51.954;7.998;2023-09-19T13:32:17;4.93;;;1.70;;
15110;SDS011;7656;51.954;7.998;2023-09-19T13:36:38;5.85;;;1.70;;
15110;SDS011;7656;51.954;7.998;2023-09-19T13:40:59;3.33;;;1.50;;
15110;SDS011;7656;51.954;7.998;2023-09-19T13:45:22;4.43;;;1.75;;
15110;SDS011;7656;51.954;7.998;2023-09-19T13:49:45;4.20;;;1.60;;
15110;SDS011;7656;51.954;7.998;2023-09-19T13:54:09;2.28;;;1.65;;
15110;SDS011;7656;51.954;7.998;2023-09-19T13:58:32;3.50;;;1.70;;
15110;SDS011;7656;51.954;7.998;2023-09-19T14:02:54;5.32;;;1.38;;
15110;SDS011;7656;51.954;7.998;2023-09-19T14:07:16;4.10;;;1.50;;
15110;SDS011;7656;51.954;7.998;2023-09-19T14:11:39;4.28;;;1.73;;
15110;SDS011;7656;51.954;7.998;2023-09-19T14:16:04;4.22;;;2.08;;
15110;SDS011;7656;51.954;7.998;2023-09-19T14:20:26;3.45;;;1.23;;
15110;SDS011;7656;51.954;7.998;2023-09-19T14:24:49;4.20;;;1.45;;
15110;SDS011;7656;51.954;7.998;2023-09-19T14:29:10;2.25;;;1.38;;
15110;SDS011;7656;51.954;7.998;2023-09-19T14:33:32;5.40;;;1.85;;
15110;SDS011;7656;51.954;7.998;2023-09-19T14:37:53;1.30;;;1.20;;
15110;SDS011;7656;51.954;7.998;2023-09-19T14:42:14;3.47;;;1.67;;
15110;SDS011;7656;51.954;7.998;2023-09-19T14:46:38;4.53;;;1.58;;
15110;SDS011;7656;51.954;7.998;2023-09-19T14:51:06;3.55;;;1.42;;
15110;SDS011;7656;51.954;7.998;2023-09-19T14:55:32;1.45;;;1.20;;
15110;SDS011;7656;51.954;7.998;2023-09-19T15:00:01;2.50;;;1.30;;
15110;SDS011;7656;51.954;7.998;2023-09-19T15:04:26;3.85;;;1.33;;
15110;SDS011;7656;51.954;7.998;2023-09-19T15:08:48;3.80;;;1.25;;
15110;SDS011;7656;51.954;7.998;2023-09-19T15:13:10;2.65;;;1.30;;
15110;SDS011;7656;51.954;7.998;2023-09-19T15:17:31;2.30;;;1.08;;
15110;SDS011;7656;51.954;7.998;2023-09-19T15:21:53;5.28;;;1.08;;
15110;SDS011;7656;51.954;7.998;2023-09-19T15:26:14;2.78;;;1.30;;
15110;SDS011;7656;51.954;7.998;2023-09-19T15:30:40;2.65;;;1.20;;
15110;SDS011;7656;51.954;7.998;2023-09-19T15:35:02;1.33;;;0.93;;
15110;SDS011;7656;51.954;7.998;2023-09-19T15:39:23;2.40;;;0.95;;
15110;SDS011;7656;51.954;7.998;2023-09-19T15:43:44;1.85;;;1.00;;
15110;SDS011;7656;51.954;7.998;2023-09-19T15:48:05;3.30;;;1.35;;
15110;SDS011;7656;51.954;7.998;2023-09-19T15:52:26;4.77;;;1.30;;
15110;SDS011;7656;51.954;7.998;2023-09-19T15:56:47;1.50;;;0.85;;
15110;SDS011;7656;51.954;7.998;2023-09-19T16:01:09;3.03;;;1.13;;
15110;SDS011;7656;51.954;7.998;2023-09-19T16:05:35;2.47;;;0.90;;
15110;SDS011;7656;51.954;7.998;2023-09-19T16:09:57;1.98;;;0.95;;
15110;SDS011;7656;51.954;7.998;2023-09-19T16:14:20;1.08;;;0.95;;
15110;SDS011;7656;51.954;7.998;2023-09-19T16:18:47;1.37;;;0.93;;
15110;SDS011;7656;51.954;7.998;2023-09-19T16:23:18;2.03;;;0.80;;
15110;SDS011;7656;51.954;7.998;2023-09-19T16:27:40;1.88;;;0.80;;
15110;SDS011;7656;51.954;7.998;2023-09-19T16:32:01;2.33;;;0.87;;
15110;SDS011;7656;51.954;7.998;2023-09-19T16:36:22;0.80;;;0.70;;
15110;SDS011;7656;51.954;7.998;2023-09-19T16:40:54;4.23;;;0.80;;
15110;SDS011;7656;51.954;7.998;2023-09-19T16:45:18;5.40;;;0.90;;
15110;SDS011;7656;51.954;7.998;2023-09-19T16:49:39;2.27;;;0.80;;
15110;SDS011;7656;51.954;7.998;2023-09-19T16:54:00;2.63;;;1.00;;
15110;SDS011;7656;51.954;7.998;2023-09-19T16:58:21;8.83;;;1.17;;
15110;SDS011;7656;51.954;7.998;2023-09-19T17:02:45;1.47;;;1.10;;
15110;SDS011;7656;51.954;7.998;2023-09-19T17:07:07;3.37;;;0.83;;
15110;SDS011;7656;51.954;7.998;2023-09-19T17:11:28;1.70;;;0.90;;
15110;SDS011;7656;51.954;7.998;2023-09-19T17:15:58;2.60;;;0.83;;
15110;SDS011;7656;51.954;7.998;2023-09-19T17:20:21;2.30;;;0.80;;
15110;SDS011;7656;51.954;7.998;2023-09-19T17:24:43;2.10;;;0.80;;
15110;SDS011;7656;51.954;7.998;2023-09-19T17:29:06;1.20;;;0.70;;
15110;SDS011;7656;51.954;7.998;2023-09-19T17:33:27;5.53;;;1.00;;
15110;SDS011;7656;51.954;7.998;2023-09-19T17:37:48;1.10;;;0.63;;
15110;SDS011;7656;51.954;7.998;2023-09-19T17:42:09;1.70;;;1.10;;
15110;SDS011;7656;51.954;7.998;2023-09-19T17:46:33;1.40;;;0.90;;
15110;SDS011;7656;51.954;7.998;2023-09-19T17:51:00;1.13;;;0.80;;
15110;SDS011;7656;51.954;7.998;2023-09-19T17:55:23;2.97;;;1.20;;
15110;SDS011;7656;51.954;7.998;2023-09-19T17:59:44;3.07;;;0.93;;
15110;SDS011;7656;51.954;7.998;2023-09-19T18:04:06;2.83;;;0.90;;
15110;SDS011;7656;51.954;7.998;2023-09-19T18:08:27;2.57;;;0.87;;
15110;SDS011;7656;51.954;7.998;2023-09-19T18:12:48;2.70;;;0.80;;
15110;SDS011;7656;51.954;7.998;2023-09-19T18:17:11;1.53;;;0.90;;
15110;SDS011;7656;51.954;7.998;2023-09-19T18:21:33;2.87;;;0.93;;
15110;SDS011;7656;51.954;7.998;2023-09-19T18:25:58;7.00;;;1.10;;
15110;SDS011;7656;51.954;7.998;2023-09-19T18:30:20;2.20;;;1.20;;
15110;SDS011;7656;51.954;7.998;2023-09-19T18:34:41;1.77;;;1.00;;
15110;SDS011;7656;51.954;7.998;2023-09-19T18:39:02;2.87;;;1.00;;
15110;SDS011;7656;51.954;7.998;2023-09-19T18:43:25;2.07;;;1.00;;
15110;SDS011;7656;51.954;7.998;2023-09-19T18:47:46;4.50;;;1.30;;
15110;SDS011;7656;51.954;7.998;2023-09-19T18:52:08;3.03;;;0.80;;
15110;SDS011;7656;51.954;7.998;2023-09-19T18:56:29;2.03;;;0.83;;
15110;SDS011;7656;51.954;7.998;2023-09-19T19:00:50;1.00;;;0.87;;
15110;SDS011;7656;51.954;7.998;2023-09-19T19:05:12;2.20;;;1.10;;
15110;SDS011;7656;51.954;7.998;2023-09-19T19:09:36;5.30;;;1.20;;
15110;SDS011;7656;51.954;7.998;2023-09-19T19:14:00;1.00;;;0.80;;
15110;SDS011;7656;51.954;7.998;2023-09-19T19:18:21;1.23;;;0.97;;
15110;SDS011;7656;51.954;7.998;2023-09-19T19:22:48;3.13;;;1.33;;
15110;SDS011;7656;51.954;7.998;2023-09-19T19:27:10;3.20;;;1.10;;
15110;SDS011;7656;51.954;7.998;2023-09-19T19:31:31;2.87;;;1.30;;
15110;SDS011;7656;51.954;7.998;2023-09-19T19:36:04;1.60;;;1.23;;
15110;SDS011;7656;51.954;7.998;2023-09-19T19:40:27;2.83;;;0.93;;
15110;SDS011;7656;51.954;7.998;2023-09-19T19:44:48;2.07;;;1.17;;
15110;SDS011;7656;51.954;7.998;2023-09-19T19:49:14;3.50;;;1.03;;
15110;SDS011;7656;51.954;7.998;2023-09-19T19:53:36;2.10;;;1.20;;
15110;SDS011;7656;51.954;7.998;2023-09-19T19:58:01;2.63;;;1.17;;
15110;SDS011;7656;51.954;7.998;2023-09-19T20:02:24;1.53;;;1.00;;
15110;SDS011;7656;51.954;7.998;2023-09-19T20:06:45;1.13;;;1.03;;
15110;SDS011;7656;51.954;7.998;2023-09-19T20:11:06;3.57;;;1.20;;
15110;SDS011;7656;51.954;7.998;2023-09-19T20:15:28;3.23;;;1.30;;
15110;SDS011;7656;51.954;7.998;2023-09-19T20:19:50;4.93;;;1.33;;
15110;SDS011;7656;51.954;7.998;2023-09-19T20:24:13;3.10;;;1.10;;
15110;SDS011;7656;51.954;7.998;2023-09-19T20:28:40;2.77;;;1.20;;
15110;SDS011;7656;51.954;7.998;2023-09-19T20:33:01;4.80;;;1.30;;
15110;SDS011;7656;51.954;7.998;2023-09-19T20:37:22;2.20;;;1.50;;
15110;SDS011;7656;51.954;7.998;2023-09-19T20:41:43;2.93;;;1.17;;
15110;SDS011;7656;51.954;7.998;2023-09-19T20:46:05;3.50;;;1.37;;
15110;SDS011;7656;51.954;7.998;2023-09-19T20:50:27;1.87;;;1.13;;
15110;SDS011;7656;51.954;7.998;2023-09-19T20:54:48;3.27;;;1.47;;
15110;SDS011;7656;51.954;7.998;2023-09-19T20:59:09;2.50;;;1.30;;
15110;SDS011;7656;51.954;7.998;2023-09-19T21:03:32;3.03;;;1.47;;
15110;SDS011;7656;51.954;7.998;2023-09-19T21:07:57;2.50;;;1.07;;
15110;SDS011;7656;51.954;7.998;2023-09-19T21:12:18;1.53;;;1.20;;
15110;SDS011;7656;51.954;7.998;2023-09-19T21:16:39;1.97;;;1.20;;
15110;SDS011;7656;51.954;7.998;2023-09-19T21:21:01;4.03;;;1.20;;
15110;SDS011;7656;51.954;7.998;2023-09-19T21:25:23;3.70;;;1.27;;
15110;SDS011;7656;51.954;7.998;2023-09-19T21:29:44;4.00;;;1.20;;
15110;SDS011;7656;51.954;7.998;2023-09-19T21:34:05;3.20;;;1.20;;
15110;SDS011;7656;51.954;7.998;2023-09-19T21:38:27;3.13;;;1.23;;
15110;SDS011;7656;51.954;7.998;2023-09-19T21:42:49;4.17;;;1.80;;
15110;SDS011;7656;51.954;7.998;2023-09-19T21:47:10;1.90;;;1.17;;
15110;SDS011;7656;51.954;7.998;2023-09-19T21:51:31;4.60;;;1.60;;
15110;SDS011;7656;51.954;7.998;2023-09-19T21:56:00;1.57;;;1.00;;
15110;SDS011;7656;51.954;7.998;2023-09-19T22:00:24;1.43;;;1.33;;
15110;SDS011;7656;51.954;7.998;2023-09-19T22:04:55;3.63;;;1.17;;
15110;SDS011;7656;51.954;7.998;2023-09-19T22:09:19;3.67;;;1.77;;
15110;SDS011;7656;51.954;7.998;2023-09-19T22:13:40;4.00;;;1.63;;
15110;SDS011;7656;51.954;7.998;2023-09-19T22:18:03;4.70;;;1.60;;
15110;SDS011;7656;51.954;7.998;2023-09-19T22:22:25;7.40;;;1.60;;
15110;SDS011;7656;51.954;7.998;2023-09-19T22:26:48;1.63;;;1.30;;
15110;SDS011;7656;51.954;7.998;2023-09-19T22:31:16;2.60;;;1.27;;
15110;SDS011;7656;51.954;7.998;2023-09-19T22:35:42;3.10;;;1.73;;
15110;SDS011;7656;51.954;7.998;2023-09-19T22:40:14;1.70;;;1.20;;
15110;SDS011;7656;51.954;7.998;2023-09-19T22:44:48;6.37;;;1.73;;
15110;SDS011;7656;51.954;7.998;2023-09-19T22:49:10;3.83;;;1.40;;
15110;SDS011;7656;51.954;7.998;2023-09-19T22:53:36;4.50;;;1.63;;
15110;SDS011;7656;51.954;7.998;2023-09-19T22:58:04;3.57;;;1.97;;
15110;SDS011;7656;51.954;7.998;2023-09-19T23:02:30;1.43;;;1.33;;
15110;SDS011;7656;51.954;7.998;2023-09-19T23:06:51;4.83;;;1.40;;
15110;SDS011;7656;51.954;7.998;2023-09-19T23:11:13;3.40;;;1.33;;
15110;SDS011;7656;51.954;7.998;2023-09-19T23:15:39;4.33;;;1.50;;
15110;SDS011;7656;51.954;7.998;2023-09-19T23:20:00;5.33;;;1.53;;
15110;SDS011;7656;51.954;7.998;2023-09-19T23:24:30;3.87;;;1.40;;
15110;SDS011;7656;51.954;7.998;2023-09-19T23:28:55;2.17;;;1.50;;
15110;SDS011;7656;51.954;7.998;2023-09-19T23:33:16;4.90;;;1.70;;
15110;SDS011;7656;51.954;7.998;2023-09-19T23:37:38;2.33;;;1.43;;
15110;SDS011;7656;51.954;7.998;2023-09-19T23:41:59;3.53;;;1.90;;
15110;SDS011;7656;51.954;7.998;2023-09-19T23:46:21;4.40;;;1.50;;
15110;SDS011;7656;51.954;7.998;2023-09-19T23:50:47;3.80;;;1.43;;
15110;SDS011;7656;51.954;7.998;2023-09-19T23:55:08;3.00;;;1.40;;
15110;SDS011;7656;51.954;7.998;2023-09-19T23:59:32;4.30;;;1.80;;
